Time;durP1;ratioP1;P1;durP2;ratioP2;P2;SDS_P1;SDS_P2;PMS_P1;PMS_P2;Temp;Humidity;BMP_temperature;BMP_pressure;BME280_temperature;BME280_humidity;BME280_pressure;Samples;Min_cycle;Max_cycle;Signal;HPM_P1;HPM_P2
2022/10/31 00:02:30;;;;;;;18.27;16.58;;;;;;;;;;5189260;28;20253;-69
2022/10/31 00:05:00;;;;;;;17.35;15.85;;;;;;;;;;5188867;28;20035;-71
2022/10/31 00:07:30;;;;;;;17.23;15.68;;;;;;;;;;5206759;28;20095;-69
2022/10/31 00:10:01;;;;;;;22.10;18.05;;;;;;;;;;5189127;28;20136;-68
2022/10/31 00:12:31;;;;;;;18.23;16.45;;;;;;;;;;5189245;28;20017;-68
2022/10/31 00:15:01;;;;;;;18.27;16.73;;;;;;;;;;5188598;28;20478;-68
2022/10/31 00:17:34;;;;;;;19.45;17.60;;;;;;;;;;5188148;28;20125;-69
2022/10/31 00:20:05;;;;;;;19.08;16.98;;;;;;;;;;5189023;28;20024;-68
2022/10/31 00:22:35;;;;;;;18.23;16.58;;;;;;;;;;5188954;28;20107;-69
2022/10/31 00:25:05;;;;;;;21.90;19.58;;;;;;;;;;5206376;28;20032;-69
2022/10/31 00:27:35;;;;;;;22.33;20.25;;;;;;;;;;5188633;28;20087;-68
2022/10/31 00:30:06;;;;;;;22.02;20.00;;;;;;;;;;5206366;28;20112;-69
2022/10/31 00:32:36;;;;;;;17.90;16.50;;;;;;;;;;5188512;28;20504;-69
2022/10/31 00:35:07;;;;;;;24.55;18.30;;;;;;;;;;5188539;28;20422;-69
2022/10/31 00:37:37;;;;;;;22.27;20.52;;;;;;;;;;5186612;28;20389;-69
2022/10/31 00:40:07;;;;;;;23.13;21.05;;;;;;;;;;5205995;28;20044;-69
2022/10/31 00:42:41;;;;;;;21.30;19.48;;;;;;;;;;5188465;28;20029;-69
2022/10/31 00:45:11;;;;;;;18.90;17.27;;;;;;;;;;5186649;28;20049;-70
2022/10/31 00:47:42;;;;;;;19.05;17.38;;;;;;;;;;5188741;28;20064;-69
2022/10/31 00:50:12;;;;;;;17.52;15.95;;;;;;;;;;5188223;28;20044;-68
2022/10/31 00:52:42;;;;;;;17.55;16.10;;;;;;;;;;5188118;28;20017;-69
2022/10/31 00:55:13;;;;;;;19.90;18.27;;;;;;;;;;5188045;28;20053;-69
2022/10/31 00:57:47;;;;;;;22.55;20.48;;;;;;;;;;5172069;28;20168;-69
2022/10/31 01:00:17;;;;;;;18.77;16.85;;;;;;;;;;5188391;28;20017;-69
2022/10/31 01:02:48;;;;;;;15.82;14.30;;;;;;;;;;5205989;28;20022;-69
2022/10/31 01:05:18;;;;;;;20.55;18.92;;;;;;;;;;5187840;28;20393;-70
2022/10/31 01:07:48;;;;;;;19.60;17.30;;;;;;;;;;5203360;23;20042;-81
2022/10/31 01:10:19;;;;;;;17.90;16.25;;;;;;;;;;5196487;28;20045;-81
2022/10/31 01:12:49;;;;;;;20.92;18.90;;;;;;;;;;5214388;28;20028;-82
2022/10/31 01:15:21;;;;;;;18.95;17.05;;;;;;;;;;5195315;28;20028;-82
2022/10/31 01:17:51;;;;;;;20.42;18.38;;;;;;;;;;5221489;28;20013;-82
2022/10/31 01:20:21;;;;;;;19.27;17.63;;;;;;;;;;5221961;28;20029;-82
2022/10/31 01:22:52;;;;;;;18.63;16.70;;;;;;;;;;5204328;28;20071;-85
2022/10/31 01:25:22;;;;;;;17.67;16.27;;;;;;;;;;5222108;28;20014;-84
2022/10/31 01:27:52;;;;;;;21.65;19.05;;;;;;;;;;5223002;28;20838;-82
2022/10/31 01:30:22;;;;;;;17.27;15.55;;;;;;;;;;5218699;28;20018;-85
2022/10/31 01:32:53;;;;;;;19.20;17.65;;;;;;;;;;5217672;28;20115;-85
2022/10/31 01:35:23;;;;;;;17.90;16.33;;;;;;;;;;5198648;28;20037;-84
2022/10/31 01:37:54;;;;;;;16.75;15.25;;;;;;;;;;5217040;28;20018;-86
2022/10/31 01:40:28;;;;;;;18.95;17.35;;;;;;;;;;5198022;28;20053;-82
2022/10/31 01:42:58;;;;;;;18.55;17.00;;;;;;;;;;5196677;28;20105;-84
2022/10/31 01:45:29;;;;;;;17.30;15.65;;;;;;;;;;5214524;28;20116;-84
2022/10/31 01:47:59;;;;;;;22.38;20.52;;;;;;;;;;5215611;28;20037;-84
2022/10/31 01:50:32;;;;;;;18.73;16.77;;;;;;;;;;5217763;28;20022;-83
2022/10/31 01:53:03;;;;;;;17.20;15.60;;;;;;;;;;5199514;28;20021;-84
2022/10/31 01:55:35;;;;;;;16.25;14.80;;;;;;;;;;5214855;28;20140;-82
2022/10/31 01:58:11;;;;;;;16.83;15.30;;;;;;;;;;5215652;28;20025;-82
2022/10/31 02:00:43;;;;;;;17.95;15.45;;;;;;;;;;5216035;28;20089;-83
2022/10/31 02:03:13;;;;;;;16.70;15.15;;;;;;;;;;5224525;28;20017;-81
2022/10/31 02:05:44;;;;;;;18.48;15.82;;;;;;;;;;5199269;28;20026;-83
2022/10/31 02:08:14;;;;;;;23.95;17.27;;;;;;;;;;5195696;28;20040;-84
2022/10/31 02:10:44;;;;;;;16.15;13.75;;;;;;;;;;5196213;28;20116;-84
2022/10/31 02:13:15;;;;;;;19.25;17.63;;;;;;;;;;5214227;28;20502;-84
2022/10/31 02:15:47;;;;;;;19.17;17.20;;;;;;;;;;5212363;28;20403;-84
2022/10/31 02:18:17;;;;;;;16.83;15.52;;;;;;;;;;5213610;28;20026;-83
2022/10/31 02:20:54;;;;;;;24.65;18.52;;;;;;;;;;5225081;28;20055;-81
2022/10/31 02:23:27;;;;;;;20.77;18.77;;;;;;;;;;5227942;28;20101;-82
2022/10/31 02:26:00;;;;;;;16.33;14.98;;;;;;;;;;5210803;28;20131;-83
2022/10/31 02:28:30;;;;;;;17.58;15.95;;;;;;;;;;5211845;28;20022;-84
2022/10/31 02:31:10;;;;;;;20.87;19.33;;;;;;;;;;5212332;28;20016;-84
2022/10/31 02:33:43;;;;;;;18.10;16.50;;;;;;;;;;5229113;28;20255;-84
2022/10/31 02:36:16;;;;;;;18.45;16.75;;;;;;;;;;5215085;28;20032;-83
2022/10/31 02:38:46;;;;;;;20.40;18.45;;;;;;;;;;5196144;28;20057;-83
2022/10/31 02:41:39;;;;;;;21.93;17.10;;;;;;;;;;5217847;28;20032;-82
2022/10/31 02:44:33;;;;;;;17.30;15.82;;;;;;;;;;5216615;28;20264;-83
2022/10/31 02:47:05;;;;;;;18.15;16.65;;;;;;;;;;5219375;28;20068;-82
2022/10/31 02:49:45;;;;;;;16.63;15.25;;;;;;;;;;5219821;28;20033;-83
2022/10/31 02:52:23;;;;;;;18.38;16.60;;;;;;;;;;5233419;28;20017;-83
2022/10/31 02:54:54;;;;;;;17.83;16.20;;;;;;;;;;5215285;28;20017;-83
2022/10/31 02:57:25;;;;;;;15.93;14.57;;;;;;;;;;5233409;28;20021;-82
2022/10/31 02:59:58;;;;;;;18.48;16.67;;;;;;;;;;5233084;28;20048;-81
2022/10/31 03:02:34;;;;;;;18.15;16.77;;;;;;;;;;5233056;28;20001;-82
2022/10/31 03:05:16;;;;;;;17.02;15.32;;;;;;;;;;5226410;28;20025;-82
2022/10/31 03:07:47;;;;;;;17.95;16.45;;;;;;;;;;5217399;28;20041;-82
2022/10/31 03:10:17;;;;;;;14.80;13.57;;;;;;;;;;5198850;28;20120;-82
2022/10/31 03:12:54;;;;;;;17.17;15.85;;;;;;;;;;5214939;28;20429;-84
2022/10/31 03:15:27;;;;;;;19.27;17.45;;;;;;;;;;5198534;28;20021;-85
2022/10/31 03:18:06;;;;;;;17.35;15.65;;;;;;;;;;5199336;28;20036;-82
2022/10/31 03:20:39;;;;;;;14.68;13.13;;;;;;;;;;5198744;28;20044;-82
2022/10/31 03:23:12;;;;;;;15.35;14.25;;;;;;;;;;5215976;28;20424;-82
2022/10/31 03:25:43;;;;;;;16.17;14.93;;;;;;;;;;5216814;28;20018;-82
2022/10/31 03:28:15;;;;;;;15.93;14.50;;;;;;;;;;5218670;28;20032;-84
2022/10/31 03:30:46;;;;;;;14.30;13.30;;;;;;;;;;5201287;28;20032;-86
2022/10/31 03:33:19;;;;;;;14.65;13.18;;;;;;;;;;5218319;28;20017;-84
2022/10/31 03:35:51;;;;;;;14.23;12.93;;;;;;;;;;5217840;28;20018;-85
2022/10/31 03:38:22;;;;;;;14.77;13.27;;;;;;;;;;5200192;28;20451;-84
2022/10/31 03:40:54;;;;;;;14.55;13.45;;;;;;;;;;5218343;28;20120;-84
2022/10/31 03:43:28;;;;;;;15.00;13.77;;;;;;;;;;5217650;28;20068;-83
2022/10/31 03:45:58;;;;;;;16.60;13.23;;;;;;;;;;5200854;28;20482;-85
2022/10/31 03:48:29;;;;;;;16.52;15.07;;;;;;;;;;5217960;28;20032;-83
2022/10/31 03:50:59;;;;;;;16.23;14.73;;;;;;;;;;5198344;28;20017;-85
2022/10/31 03:53:52;;;;;;;14.20;12.80;;;;;;;;;;5198954;28;20109;-86
2022/10/31 03:56:27;;;;;;;14.85;13.73;;;;;;;;;;5199793;28;20291;-85
2022/10/31 03:59:21;;;;;;;18.13;16.42;;;;;;;;;;5199233;28;20395;-86
2022/10/31 04:01:53;;;;;;;17.45;15.60;;;;;;;;;;5207433;28;20033;-82
2022/10/31 04:04:23;;;;;;;21.48;15.18;;;;;;;;;;5216357;28;20017;-82
2022/10/31 04:06:54;;;;;;;17.95;16.55;;;;;;;;;;5200402;28;20025;-82
2022/10/31 04:09:26;;;;;;;16.48;15.15;;;;;;;;;;5216901;28;20341;-84
2022/10/31 04:11:57;;;;;;;17.63;15.23;;;;;;;;;;5217228;28;20029;-82
2022/10/31 04:14:30;;;;;;;15.82;14.20;;;;;;;;;;5216519;28;20085;-82
2022/10/31 04:17:03;;;;;;;16.40;15.13;;;;;;;;;;5216173;28;20051;-81
2022/10/31 04:19:33;;;;;;;17.63;14.60;;;;;;;;;;5217667;28;20025;-82
2022/10/31 04:22:04;;;;;;;14.82;13.82;;;;;;;;;;5199347;28;20014;-81
2022/10/31 04:24:34;;;;;;;17.77;16.23;;;;;;;;;;5198288;28;20040;-81
2022/10/31 04:27:04;;;;;;;12.73;11.82;;;;;;;;;;5217676;28;20081;-81
2022/10/31 04:29:35;;;;;;;16.63;15.40;;;;;;;;;;5218409;28;20017;-82
2022/10/31 04:32:05;;;;;;;17.00;15.60;;;;;;;;;;5200614;28;20053;-84
2022/10/31 04:34:35;;;;;;;15.00;12.75;;;;;;;;;;5199100;28;20480;-82
2022/10/31 04:37:05;;;;;;;16.95;15.50;;;;;;;;;;5218473;28;20492;-82
2022/10/31 04:39:35;;;;;;;15.80;14.05;;;;;;;;;;5217658;28;20017;-82
2022/10/31 04:42:06;;;;;;;14.40;13.05;;;;;;;;;;5217260;28;20032;-83
2022/10/31 04:44:36;;;;;;;14.85;13.80;;;;;;;;;;5217032;28;20040;-82
2022/10/31 04:47:06;;;;;;;15.87;14.40;;;;;;;;;;5217968;28;20052;-82
2022/10/31 04:49:36;;;;;;;15.43;14.20;;;;;;;;;;5216964;28;20284;-82
2022/10/31 04:52:07;;;;;;;24.98;12.73;;;;;;;;;;5219127;28;20103;-82
2022/10/31 04:54:38;;;;;;;15.35;13.75;;;;;;;;;;5217620;28;20023;-83
2022/10/31 04:57:08;;;;;;;16.83;15.13;;;;;;;;;;5198405;28;20049;-82
2022/10/31 04:59:38;;;;;;;15.65;14.00;;;;;;;;;;5218975;28;20029;-82
2022/10/31 05:02:08;;;;;;;16.02;14.65;;;;;;;;;;5217667;28;20052;-83
2022/10/31 05:04:39;;;;;;;15.07;13.77;;;;;;;;;;5216808;28;20013;-83
2022/10/31 05:07:09;;;;;;;17.58;15.95;;;;;;;;;;5217866;28;20036;-82
2022/10/31 05:09:39;;;;;;;17.30;15.80;;;;;;;;;;5217458;28;20029;-82
2022/10/31 05:12:09;;;;;;;16.42;14.70;;;;;;;;;;5219133;28;20024;-82
2022/10/31 05:14:40;;;;;;;16.80;15.53;;;;;;;;;;5222863;28;20017;-84
2022/10/31 05:17:10;;;;;;;19.38;15.05;;;;;;;;;;5218524;28;20256;-82
2022/10/31 05:19:40;;;;;;;16.15;14.90;;;;;;;;;;5218360;28;20022;-83
2022/10/31 05:22:10;;;;;;;17.75;15.23;;;;;;;;;;5218222;28;20017;-82
2022/10/31 05:24:41;;;;;;;16.42;15.00;;;;;;;;;;5214715;28;20032;-83
2022/10/31 05:27:11;;;;;;;21.55;17.50;;;;;;;;;;5216412;28;20076;-83
2022/10/31 05:29:41;;;;;;;20.57;17.33;;;;;;;;;;5197962;28;20014;-82
2022/10/31 05:32:11;;;;;;;18.83;17.00;;;;;;;;;;5215131;28;20268;-82
2022/10/31 05:34:42;;;;;;;16.95;15.35;;;;;;;;;;5213304;28;20260;-82
2022/10/31 05:37:12;;;;;;;20.88;18.92;;;;;;;;;;5213787;28;20026;-82
2022/10/31 05:39:42;;;;;;;18.38;16.75;;;;;;;;;;5215597;28;20618;-82
2022/10/31 05:42:12;;;;;;;20.48;18.50;;;;;;;;;;5211859;28;20391;-80
2022/10/31 05:44:43;;;;;;;21.75;18.45;;;;;;;;;;5210953;28;20100;-80
2022/10/31 05:47:13;;;;;;;16.95;15.30;;;;;;;;;;5213206;28;20010;-80
2022/10/31 05:49:43;;;;;;;21.13;19.13;;;;;;;;;;5194770;28;20111;-83
2022/10/31 05:52:13;;;;;;;20.50;18.77;;;;;;;;;;5191810;28;20372;-80
2022/10/31 05:54:44;;;;;;;18.52;16.83;;;;;;;;;;5211638;28;20422;-81
2022/10/31 05:57:14;;;;;;;19.88;18.17;;;;;;;;;;5195461;28;20108;-81
2022/10/31 05:59:44;;;;;;;22.65;19.52;;;;;;;;;;5212574;28;20045;-80
2022/10/31 06:02:14;;;;;;;20.52;17.58;;;;;;;;;;5211878;28;20021;-81
2022/10/31 06:04:45;;;;;;;19.52;17.70;;;;;;;;;;5211988;28;20018;-81
2022/10/31 06:07:15;;;;;;;21.27;19.37;;;;;;;;;;5213753;28;20103;-83
2022/10/31 06:09:45;;;;;;;27.37;18.23;;;;;;;;;;5193462;28;20778;-81
2022/10/31 06:12:15;;;;;;;23.27;19.97;;;;;;;;;;5195387;28;20260;-82
2022/10/31 06:14:45;;;;;;;22.70;20.15;;;;;;;;;;5211893;28;20264;-81
2022/10/31 06:17:16;;;;;;;22.50;20.60;;;;;;;;;;5213375;28;20105;-84
2022/10/31 06:19:46;;;;;;;25.90;23.10;;;;;;;;;;5213918;28;20021;-81
2022/10/31 06:22:16;;;;;;;24.75;22.58;;;;;;;;;;5212949;28;20071;-82
2022/10/31 06:24:46;;;;;;;24.25;21.73;;;;;;;;;;5213761;28;20017;-81
2022/10/31 06:27:17;;;;;;;22.83;20.57;;;;;;;;;;5214211;28;20022;-81
2022/10/31 06:29:47;;;;;;;24.95;22.33;;;;;;;;;;5198408;28;20272;-83
2022/10/31 06:32:17;;;;;;;26.08;22.58;;;;;;;;;;5202204;28;20040;-82
2022/10/31 06:34:48;;;;;;;22.60;20.85;;;;;;;;;;5218748;28;20021;-82
2022/10/31 06:37:18;;;;;;;27.25;24.50;;;;;;;;;;5220725;28;20021;-82
2022/10/31 06:39:48;;;;;;;23.42;21.23;;;;;;;;;;5220015;28;20010;-81
2022/10/31 06:42:18;;;;;;;29.77;25.95;;;;;;;;;;5218213;28;20033;-80
2022/10/31 06:44:49;;;;;;;32.03;24.70;;;;;;;;;;5196420;28;20024;-82
2022/10/31 06:47:19;;;;;;;27.80;24.92;;;;;;;;;;5215778;28;20788;-82
2022/10/31 06:49:49;;;;;;;26.63;24.00;;;;;;;;;;5215988;28;20025;-82
2022/10/31 06:52:19;;;;;;;26.35;24.13;;;;;;;;;;5216202;28;20260;-83
2022/10/31 06:54:50;;;;;;;26.50;24.10;;;;;;;;;;5195858;28;20467;-81
2022/10/31 06:57:20;;;;;;;27.55;24.98;;;;;;;;;;5197167;28;20356;-81
2022/10/31 06:59:50;;;;;;;28.90;25.90;;;;;;;;;;5214066;28;20232;-81
2022/10/31 07:02:20;;;;;;;24.10;22.08;;;;;;;;;;5197148;28;20029;-83
2022/10/31 07:04:51;;;;;;;29.10;26.05;;;;;;;;;;5212634;28;20075;-80
2022/10/31 07:07:21;;;;;;;23.35;21.10;;;;;;;;;;5234449;22;20008;-71
2022/10/31 07:09:51;;;;;;;24.42;22.00;;;;;;;;;;5205519;28;20028;-70
2022/10/31 07:12:22;;;;;;;24.70;21.73;;;;;;;;;;5206895;28;20021;-71
2022/10/31 07:14:52;;;;;;;26.85;24.23;;;;;;;;;;5206455;28;20021;-73
2022/10/31 07:17:25;;;;;;;29.02;23.88;;;;;;;;;;5205124;28;20109;-72
2022/10/31 07:19:55;;;;;;;30.45;27.15;;;;;;;;;;5206823;28;20116;-70
2022/10/31 07:22:31;;;;;;;25.08;22.58;;;;;;;;;;5206926;28;20103;-71
2022/10/31 07:25:02;;;;;;;29.30;25.50;;;;;;;;;;5224960;28;20027;-71
2022/10/31 07:27:36;;;;;;;25.33;23.13;;;;;;;;;;5210106;28;20021;-70
2022/10/31 07:30:07;;;;;;;27.60;24.45;;;;;;;;;;5210657;28;20317;-70
2022/10/31 07:32:38;;;;;;;25.20;23.13;;;;;;;;;;5210489;28;20544;-71
2022/10/31 07:35:08;;;;;;;26.60;23.90;;;;;;;;;;5210051;28;20108;-70
2022/10/31 07:37:39;;;;;;;24.20;21.95;;;;;;;;;;5228571;28;20477;-70
2022/10/31 07:40:10;;;;;;;25.40;23.20;;;;;;;;;;5210357;28;20062;-70
2022/10/31 07:42:41;;;;;;;30.00;26.67;;;;;;;;;;5210085;28;20021;-70
2022/10/31 07:45:13;;;;;;;24.52;21.45;;;;;;;;;;5209795;28;20043;-69
2022/10/31 07:47:52;;;;;;;27.00;24.40;;;;;;;;;;5210366;28;20396;-70
2022/10/31 07:50:24;;;;;;;28.60;25.85;;;;;;;;;;5210571;28;20021;-70
2022/10/31 07:53:04;;;;;;;29.10;26.05;;;;;;;;;;5209593;28;20055;-69
2022/10/31 07:55:35;;;;;;;30.85;27.90;;;;;;;;;;5209703;28;20468;-70
2022/10/31 07:58:06;;;;;;;34.33;28.70;;;;;;;;;;5210240;28;20017;-70
2022/10/31 08:00:37;;;;;;;46.45;32.47;;;;;;;;;;5209907;28;20446;-72
2022/10/31 08:03:12;;;;;;;40.28;31.38;;;;;;;;;;5209588;28;20009;-72
2022/10/31 08:05:44;;;;;;;34.85;31.33;;;;;;;;;;5209619;28;20392;-72
2022/10/31 08:08:15;;;;;;;31.52;27.17;;;;;;;;;;5209686;28;20025;-72
2022/10/31 08:10:45;;;;;;;33.42;30.02;;;;;;;;;;5209654;28;20507;-72
2022/10/31 08:13:15;;;;;;;31.33;26.90;;;;;;;;;;5209334;28;20048;-72
2022/10/31 08:15:50;;;;;;;30.42;27.45;;;;;;;;;;5209540;28;20032;-72
2022/10/31 08:18:21;;;;;;;30.92;27.90;;;;;;;;;;5209492;28;20075;-72
2022/10/31 08:20:53;;;;;;;29.80;26.98;;;;;;;;;;5209374;28;20017;-72
2022/10/31 08:23:23;;;;;;;31.40;27.83;;;;;;;;;;5209099;28;20116;-72
2022/10/31 08:25:53;;;;;;;29.55;26.50;;;;;;;;;;5209515;28;20548;-72
2022/10/31 08:28:24;;;;;;;36.33;26.50;;;;;;;;;;5209156;28;20024;-72
2022/10/31 08:30:54;;;;;;;33.08;29.63;;;;;;;;;;5209020;28;20020;-73
2022/10/31 08:33:24;;;;;;;37.88;30.05;;;;;;;;;;5208479;28;20370;-73
2022/10/31 08:35:57;;;;;;;33.85;27.98;;;;;;;;;;5209230;28;20029;-72
2022/10/31 08:38:27;;;;;;;29.02;25.80;;;;;;;;;;5208662;28;20147;-71
2022/10/31 08:40:58;;;;;;;28.27;25.48;;;;;;;;;;5207857;28;20028;-71
2022/10/31 08:43:28;;;;;;;29.77;23.27;;;;;;;;;;5208735;28;20436;-70
2022/10/31 08:45:58;;;;;;;30.60;24.77;;;;;;;;;;5208666;28;20066;-69
2022/10/31 08:48:29;;;;;;;29.00;22.95;;;;;;;;;;5208885;28;20501;-71
2022/10/31 08:50:59;;;;;;;30.88;24.70;;;;;;;;;;5208773;28;20021;-70
2022/10/31 08:53:29;;;;;;;26.80;24.02;;;;;;;;;;5208681;28;20052;-71
2022/10/31 08:56:00;;;;;;;25.42;23.02;;;;;;;;;;5207538;28;20481;-71
2022/10/31 08:58:30;;;;;;;25.40;22.80;;;;;;;;;;5209202;28;20021;-71
2022/10/31 09:01:01;;;;;;;25.30;22.73;;;;;;;;;;5226810;28;20013;-71
2022/10/31 09:03:31;;;;;;;23.17;21.02;;;;;;;;;;5208405;28;20017;-70
2022/10/31 09:06:02;;;;;;;35.30;23.73;;;;;;;;;;5208699;28;20042;-69
2022/10/31 09:08:33;;;;;;;28.60;22.83;;;;;;;;;;5208174;28;20041;-69
2022/10/31 09:11:03;;;;;;;23.08;21.05;;;;;;;;;;5207771;28;20024;-69
2022/10/31 09:13:33;;;;;;;23.70;21.55;;;;;;;;;;5208350;28;20021;-68
2022/10/31 09:16:04;;;;;;;26.45;24.02;;;;;;;;;;5226382;28;20066;-68
2022/10/31 09:18:34;;;;;;;26.63;23.83;;;;;;;;;;5208473;28;20072;-68
2022/10/31 09:21:05;;;;;;;25.90;23.67;;;;;;;;;;5226187;28;20422;-68
2022/10/31 09:23:35;;;;;;;27.27;24.48;;;;;;;;;;5208083;28;20477;-71
2022/10/31 09:26:06;;;;;;;29.95;27.08;;;;;;;;;;5207848;28;20027;-71
2022/10/31 09:28:36;;;;;;;26.48;24.05;;;;;;;;;;5208480;28;20040;-73
2022/10/31 09:31:06;;;;;;;25.30;21.30;;;;;;;;;;5208023;28;20611;-71
2022/10/31 09:33:37;;;;;;;30.52;23.02;;;;;;;;;;5207824;28;20094;-70
2022/10/31 09:36:07;;;;;;;29.08;26.35;;;;;;;;;;5208052;28;20524;-71
2022/10/31 09:38:37;;;;;;;25.40;22.77;;;;;;;;;;5208205;28;20094;-71
2022/10/31 09:41:17;;;;;;;34.17;30.33;;;;;;;;;;5207876;28;20100;-71
2022/10/31 09:43:57;;;;;;;33.75;30.38;;;;;;;;;;5207430;28;20119;-71
2022/10/31 09:46:35;;;;;;;32.72;29.73;;;;;;;;;;5207837;28;20126;-71
2022/10/31 09:49:06;;;;;;;41.50;31.65;;;;;;;;;;5207169;28;20032;-71
2022/10/31 09:51:45;;;;;;;31.48;28.25;;;;;;;;;;5208069;28;20024;-71
2022/10/31 09:54:18;;;;;;;29.63;26.50;;;;;;;;;;5225447;28;20036;-70
2022/10/31 09:56:49;;;;;;;29.83;26.77;;;;;;;;;;5225966;28;20029;-69
2022/10/31 09:59:37;;;;;;;32.05;28.65;;;;;;;;;;5207348;28;20024;-69
2022/10/31 10:02:10;;;;;;;33.55;29.88;;;;;;;;;;5207637;28;20064;-72
2022/10/31 10:04:44;;;;;;;30.00;25.92;;;;;;;;;;5225041;28;20029;-69
2022/10/31 10:07:14;;;;;;;32.85;29.45;;;;;;;;;;5207584;28;20013;-69
2022/10/31 10:09:45;;;;;;;35.97;29.30;;;;;;;;;;5207537;28;20180;-68
2022/10/31 10:12:22;;;;;;;34.55;31.27;;;;;;;;;;5207642;28;20112;-74
2022/10/31 10:15:01;;;;;;;33.45;30.55;;;;;;;;;;5207241;28;20489;-69
2022/10/31 10:17:36;;;;;;;33.58;30.45;;;;;;;;;;5225753;28;20021;-67
2022/10/31 10:20:09;;;;;;;34.33;31.08;;;;;;;;;;5207478;28;20036;-72
2022/10/31 10:22:46;;;;;;;35.00;31.63;;;;;;;;;;5225297;28;20021;-66
2022/10/31 10:25:19;;;;;;;34.22;30.58;;;;;;;;;;5207057;28;20021;-66
2022/10/31 10:28:08;;;;;;;34.22;30.65;;;;;;;;;;5207514;28;20021;-67
2022/10/31 10:30:40;;;;;;;36.83;33.00;;;;;;;;;;5206672;28;20470;-66
2022/10/31 10:33:16;;;;;;;32.30;29.33;;;;;;;;;;5207305;28;20271;-66
2022/10/31 10:35:52;;;;;;;29.75;27.05;;;;;;;;;;5207018;28;20029;-66
2022/10/31 10:38:28;;;;;;;29.33;26.42;;;;;;;;;;5207173;28;20028;-66
2022/10/31 10:41:00;;;;;;;29.42;23.92;;;;;;;;;;5207138;28;20024;-66
2022/10/31 10:43:33;;;;;;;29.30;26.48;;;;;;;;;;5206693;28;20033;-65
2022/10/31 10:49:19;;;;;;;25.85;23.23;;;;;;;;;;5224853;28;20401;-67
2022/10/31 10:52:04;;;;;;;32.17;23.83;;;;;;;;;;5207213;28;20020;-67
2022/10/31 10:54:53;;;;;;;24.95;22.45;;;;;;;;;;5206847;28;20048;-67
2022/10/31 10:57:36;;;;;;;24.77;22.27;;;;;;;;;;5224823;28;20036;-66
2022/10/31 11:00:18;;;;;;;25.58;23.15;;;;;;;;;;5208269;28;20021;-66
2022/10/31 11:02:49;;;;;;;22.23;20.25;;;;;;;;;;5211255;28;20428;-68
2022/10/31 11:05:36;;;;;;;25.85;22.60;;;;;;;;;;5210792;28;20021;-67
2022/10/31 11:08:06;;;;;;;26.00;23.88;;;;;;;;;;5209658;28;20095;-66
2022/10/31 11:10:37;;;;;;;25.77;23.15;;;;;;;;;;5211125;28;20025;-69
2022/10/31 11:13:13;;;;;;;24.88;22.25;;;;;;;;;;5210731;28;20027;-68
2022/10/31 11:15:50;;;;;;;29.27;22.75;;;;;;;;;;5210864;28;20041;-67
2022/10/31 11:18:21;;;;;;;23.30;20.90;;;;;;;;;;5210605;28;20020;-66
2022/10/31 11:20:53;;;;;;;26.52;23.75;;;;;;;;;;5210392;28;20051;-67
2022/10/31 11:23:25;;;;;;;25.10;22.58;;;;;;;;;;5210474;28;20553;-69
2022/10/31 11:26:03;;;;;;;25.58;20.50;;;;;;;;;;5210679;28;20021;-66
2022/10/31 11:28:34;;;;;;;24.90;19.50;;;;;;;;;;5227866;28;20055;-69
2022/10/31 11:31:06;;;;;;;25.88;22.63;;;;;;;;;;5210543;28;20017;-66
2022/10/31 11:33:38;;;;;;;25.90;21.30;;;;;;;;;;5210134;28;20389;-67
2022/10/31 11:36:22;;;;;;;25.10;22.50;;;;;;;;;;5210078;28;20020;-67
2022/10/31 11:38:53;;;;;;;24.30;21.55;;;;;;;;;;5210154;28;20021;-66
2022/10/31 11:41:27;;;;;;;30.58;23.08;;;;;;;;;;5210011;28;20100;-65
2022/10/31 11:43:59;;;;;;;20.20;18.38;;;;;;;;;;5209909;28;20017;-66
2022/10/31 11:46:50;;;;;;;27.63;24.88;;;;;;;;;;5210163;28;20516;-65
2022/10/31 11:49:28;;;;;;;27.20;24.45;;;;;;;;;;5209911;28;20029;-65
2022/10/31 11:52:01;;;;;;;27.33;23.50;;;;;;;;;;5210027;28;20028;-66
2022/10/31 11:54:36;;;;;;;34.05;23.60;;;;;;;;;;5209573;28;20503;-66
2022/10/31 11:57:21;;;;;;;24.50;22.05;;;;;;;;;;5209679;28;20027;-66
2022/10/31 11:59:56;;;;;;;26.75;24.27;;;;;;;;;;5209579;28;20029;-65
2022/10/31 12:02:26;;;;;;;25.55;21.92;;;;;;;;;;5209380;28;20017;-66
2022/10/31 12:05:15;;;;;;;37.78;22.15;;;;;;;;;;5209225;28;20023;-66
2022/10/31 12:07:46;;;;;;;22.90;20.30;;;;;;;;;;5209090;28;20017;-65
2022/10/31 12:10:19;;;;;;;22.80;20.50;;;;;;;;;;5209357;28;20075;-66
2022/10/31 12:12:49;;;;;;;21.50;18.20;;;;;;;;;;5208358;28;20057;-65
2022/10/31 12:15:33;;;;;;;17.92;16.15;;;;;;;;;;5208180;28;20056;-65
2022/10/31 12:18:13;;;;;;;21.13;18.98;;;;;;;;;;5209638;28;20107;-65
2022/10/31 12:20:49;;;;;;;18.55;16.60;;;;;;;;;;5208961;28;20116;-66
2022/10/31 12:23:24;;;;;;;18.70;16.88;;;;;;;;;;5225307;28;20051;-66
2022/10/31 12:25:54;;;;;;;19.65;17.23;;;;;;;;;;5209166;28;20031;-66
2022/10/31 12:28:43;;;;;;;22.13;14.68;;;;;;;;;;5209188;28;20024;-65
2022/10/31 12:31:23;;;;;;;23.95;17.58;;;;;;;;;;5209059;28;20021;-65
2022/10/31 12:34:15;;;;;;;17.48;14.52;;;;;;;;;;5208741;28;20060;-66
2022/10/31 12:36:45;;;;;;;22.70;15.00;;;;;;;;;;5208364;28;20024;-65
2022/10/31 12:39:15;;;;;;;14.77;12.65;;;;;;;;;;5209001;28;20024;-65
2022/10/31 12:41:46;;;;;;;24.02;14.43;;;;;;;;;;5208717;28;20104;-65
2022/10/31 12:44:30;;;;;;;14.30;12.25;;;;;;;;;;5208575;28;20017;-67
2022/10/31 12:47:39;;;;;;;19.30;13.02;;;;;;;;;;5208612;28;20024;-68
2022/10/31 12:50:18;;;;;;;14.98;13.40;;;;;;;;;;5126109;28;20518;-67
2022/10/31 12:53:06;;;;;;;22.08;13.45;;;;;;;;;;5126617;28;20030;-69
2022/10/31 12:55:55;;;;;;;13.60;12.55;;;;;;;;;;5184872;28;20083;-69
2022/10/31 12:58:38;;;;;;;21.08;14.30;;;;;;;;;;5208610;28;20039;-67
2022/10/31 13:01:22;;;;;;;16.08;14.48;;;;;;;;;;5208404;28;20035;-67
2022/10/31 13:03:57;;;;;;;15.65;13.13;;;;;;;;;;5208267;28;20013;-67
2022/10/31 13:06:38;;;;;;;19.05;13.65;;;;;;;;;;5208752;28;20360;-67
2022/10/31 13:09:11;;;;;;;14.07;12.77;;;;;;;;;;5234036;23;20037;-63
2022/10/31 13:11:46;;;;;;;18.08;13.68;;;;;;;;;;5249014;28;20485;-64
2022/10/31 13:14:17;;;;;;;19.20;12.95;;;;;;;;;;5249140;28;20426;-65
2022/10/31 13:16:47;;;;;;;18.05;10.65;;;;;;;;;;5249241;28;20031;-64
2022/10/31 13:19:18;;;;;;;15.50;11.68;;;;;;;;;;5267723;28;20065;-64
2022/10/31 13:21:57;;;;;;;15.25;12.40;;;;;;;;;;5249272;28;20532;-65
2022/10/31 13:24:33;;;;;;;13.13;11.45;;;;;;;;;;5266975;28;20069;-64
2022/10/31 13:27:11;;;;;;;10.13;9.20;;;;;;;;;;5267520;28;20071;-64
2022/10/31 13:30:05;;;;;;;11.52;9.68;;;;;;;;;;5249198;28;20030;-63
2022/10/31 13:32:43;;;;;;;13.25;11.00;;;;;;;;;;5256113;28;20375;-64
2022/10/31 13:35:37;;;;;;;16.35;12.70;;;;;;;;;;5235525;28;20029;-64
2022/10/31 13:38:15;;;;;;;13.93;9.82;;;;;;;;;;5236755;28;20032;-66
2022/10/31 13:40:57;;;;;;;12.85;10.32;;;;;;;;;;5248542;28;20024;-65
2022/10/31 13:43:27;;;;;;;18.35;10.13;;;;;;;;;;5248369;28;20020;-64
2022/10/31 13:45:58;;;;;;;11.60;10.60;;;;;;;;;;5248395;28;20097;-64
2022/10/31 13:48:28;;;;;;;16.27;9.55;;;;;;;;;;5246932;28;20099;-64
2022/10/31 13:51:01;;;;;;;10.85;9.88;;;;;;;;;;5248603;28;20074;-64
2022/10/31 13:53:35;;;;;;;9.82;9.02;;;;;;;;;;5247137;28;20410;-64
2022/10/31 13:56:05;;;;;;;14.35;9.38;;;;;;;;;;5248361;28;20028;-64
2022/10/31 13:58:36;;;;;;;13.85;12.50;;;;;;;;;;5266065;28;20020;-65
2022/10/31 14:01:17;;;;;;;9.45;8.45;;;;;;;;;;5266680;28;20020;-64
2022/10/31 14:03:55;;;;;;;11.48;9.43;;;;;;;;;;5247973;28;20446;-65
2022/10/31 14:06:36;;;;;;;17.55;9.00;;;;;;;;;;5248473;28;20452;-64
2022/10/31 14:09:17;;;;;;;17.40;8.63;;;;;;;;;;5247595;28;20097;-64
2022/10/31 14:11:48;;;;;;;15.70;11.05;;;;;;;;;;5248136;28;20027;-65
2022/10/31 14:14:19;;;;;;;10.73;9.63;;;;;;;;;;5248025;28;20399;-64
2022/10/31 14:16:54;;;;;;;8.80;7.93;;;;;;;;;;5266349;28;20365;-67
2022/10/31 14:19:24;;;;;;;8.25;7.55;;;;;;;;;;5247603;28;20020;-65
2022/10/31 14:21:55;;;;;;;10.82;6.78;;;;;;;;;;5248128;28;20017;-65
2022/10/31 14:24:25;;;;;;;10.18;7.72;;;;;;;;;;5241969;28;20021;-64
2022/10/31 14:27:00;;;;;;;17.13;6.80;;;;;;;;;;5227128;28;20395;-63
2022/10/31 14:29:31;;;;;;;12.85;8.32;;;;;;;;;;5227456;28;20025;-66
2022/10/31 14:32:10;;;;;;;10.70;6.43;;;;;;;;;;5227309;28;20369;-65
2022/10/31 14:34:50;;;;;;;10.57;8.32;;;;;;;;;;5227066;28;20017;-65
2022/10/31 14:37:38;;;;;;;10.75;6.43;;;;;;;;;;5231247;28;20108;-65
2022/10/31 14:40:12;;;;;;;13.07;9.88;;;;;;;;;;5231105;28;20012;-65
2022/10/31 14:42:55;;;;;;;9.55;8.75;;;;;;;;;;5227501;28;20020;-65
2022/10/31 14:45:30;;;;;;;10.80;9.82;;;;;;;;;;5231576;28;20020;-65
2022/10/31 14:48:00;;;;;;;12.52;8.90;;;;;;;;;;5231891;28;20039;-64
2022/10/31 14:50:39;;;;;;;9.15;7.95;;;;;;;;;;5231809;28;20020;-66
2022/10/31 14:53:16;;;;;;;15.45;9.05;;;;;;;;;;5232097;28;20028;-65
2022/10/31 14:55:51;;;;;;;13.23;9.55;;;;;;;;;;5231585;28;20029;-65
2022/10/31 14:58:35;;;;;;;26.10;11.00;;;;;;;;;;5249899;28;20016;-67